createdAt,value
2023-03-05T00:01:24.326Z,3.79
2023-03-05T00:03:52.723Z,3.82
2023-03-05T00:06:19.712Z,3.80
2023-03-05T00:08:46.556Z,3.79
2023-03-05T00:11:13.795Z,3.79
2023-03-05T00:13:40.334Z,3.78
2023-03-05T00:16:09.584Z,3.77
2023-03-05T00:18:36.131Z,3.80
2023-03-05T00:21:02.775Z,3.79
2023-03-05T00:23:29.196Z,3.78
2023-03-05T00:26:00.646Z,3.77
2023-03-05T00:28:27.016Z,3.79
2023-03-05T00:30:53.374Z,3.76
2023-03-05T00:33:19.804Z,3.78
2023-03-05T00:35:46.706Z,3.79
2023-03-05T00:38:15.335Z,3.81
2023-03-05T00:40:41.996Z,3.75
2023-03-05T00:43:09.117Z,3.68
2023-03-05T00:45:39.149Z,3.62
2023-03-05T00:48:05.731Z,3.59
2023-03-05T00:50:32.116Z,3.57
2023-03-05T00:53:03.449Z,3.56
2023-03-05T00:55:33.835Z,3.56
2023-03-05T00:58:02.536Z,3.54
2023-03-05T01:00:29.007Z,3.55
2023-03-05T01:02:58.818Z,3.57
2023-03-05T01:05:28.820Z,3.56
2023-03-05T01:07:56.305Z,3.57
2023-03-05T01:10:27.304Z,3.55
2023-03-05T01:12:58.553Z,3.54
2023-03-05T01:15:25.344Z,3.55
2023-03-05T01:17:56.372Z,3.52
2023-03-05T01:20:24.874Z,3.55
2023-03-05T01:22:51.531Z,3.57
2023-03-05T01:25:20.746Z,3.57
2023-03-05T01:27:47.294Z,3.58
2023-03-05T01:30:15.090Z,3.55
2023-03-05T01:32:41.916Z,3.54
2023-03-05T01:35:09.799Z,3.54
2023-03-05T01:37:38.528Z,3.55
2023-03-05T01:40:06.455Z,3.55
2023-03-05T01:42:35.370Z,3.55
2023-03-05T01:45:02.388Z,3.50
2023-03-05T01:47:29.755Z,3.50
2023-03-05T01:49:56.570Z,3.48
2023-03-05T01:52:26.600Z,3.48
2023-03-05T01:55:01.340Z,3.47
2023-03-05T01:57:42.428Z,3.47
2023-03-05T02:00:17.599Z,3.46
2023-03-05T02:02:44.889Z,3.46
2023-03-05T02:05:13.043Z,3.41
2023-03-05T02:07:43.015Z,3.40
2023-03-05T02:10:16.535Z,3.42
2023-03-05T02:12:42.981Z,3.42
2023-03-05T02:15:10.058Z,3.42
2023-03-05T02:17:38.943Z,3.43
2023-03-05T02:20:08.279Z,3.45
2023-03-05T02:22:34.671Z,3.45
2023-03-05T02:25:11.841Z,3.45
2023-03-05T02:27:42.297Z,3.41
2023-03-05T02:30:13.625Z,3.39
2023-03-05T02:32:42.938Z,3.41
2023-03-05T02:35:10.410Z,3.41
2023-03-05T02:37:36.855Z,3.39
2023-03-05T02:40:03.640Z,3.38
2023-03-05T02:42:33.535Z,3.37
2023-03-05T02:45:02.878Z,3.38
2023-03-05T02:47:29.334Z,3.35
2023-03-05T02:49:59.423Z,3.31
2023-03-05T02:52:28.625Z,3.31
2023-03-05T02:54:55.020Z,3.33
2023-03-05T02:57:21.431Z,3.31
2023-03-05T02:59:47.838Z,3.29
2023-03-05T03:02:15.317Z,3.26
2023-03-05T03:04:47.087Z,3.25
2023-03-05T03:07:15.932Z,3.26
2023-03-05T03:09:45.384Z,3.27
2023-03-05T03:12:12.056Z,3.28
2023-03-05T03:14:43.714Z,3.27
2023-03-05T03:17:11.700Z,3.28
2023-03-05T03:19:38.732Z,3.29
2023-03-05T03:22:05.925Z,3.27
2023-03-05T03:24:33.020Z,3.24
2023-03-05T03:27:02.128Z,3.21
2023-03-05T03:29:31.075Z,3.21
2023-03-05T03:31:58.930Z,3.20
2023-03-05T03:34:26.955Z,3.21
2023-03-05T03:36:53.435Z,3.20
2023-03-05T03:39:20.359Z,3.17
2023-03-05T03:41:52.408Z,3.17
2023-03-05T03:44:21.707Z,3.15
2023-03-05T03:46:51.336Z,3.15
2023-03-05T03:49:24.323Z,3.19
2023-03-05T03:51:51.290Z,3.20
2023-03-05T03:54:18.834Z,3.20
2023-03-05T03:56:45.846Z,3.17
2023-03-05T03:59:15.036Z,3.14
2023-03-05T04:01:47.899Z,3.13
2023-03-05T04:04:14.387Z,3.13
2023-03-05T04:06:52.681Z,3.15
2023-03-05T04:09:19.094Z,3.14
2023-03-05T04:11:50.855Z,3.13
2023-03-05T04:14:17.267Z,3.12
2023-03-05T04:16:48.190Z,3.12
2023-03-05T04:19:14.599Z,3.12
2023-03-05T04:21:41.161Z,3.11
2023-03-05T04:24:11.067Z,3.11
2023-03-05T04:26:37.421Z,3.11
2023-03-05T04:29:05.049Z,3.11
2023-03-05T04:31:33.944Z,3.14
2023-03-05T04:34:00.992Z,3.11
2023-03-05T04:36:27.421Z,3.13
2023-03-05T04:38:53.961Z,3.13
2023-03-05T04:41:20.383Z,3.15
2023-03-05T04:43:47.740Z,3.16
2023-03-05T04:46:14.613Z,3.14
2023-03-05T04:48:41.111Z,3.12
2023-03-05T04:51:07.520Z,3.11
2023-03-05T04:53:36.544Z,3.10
2023-03-05T04:56:03.039Z,3.06
2023-03-05T04:58:30.833Z,3.02
2023-03-05T05:01:03.519Z,2.96
2023-03-05T05:03:29.964Z,2.92
2023-03-05T05:05:57.501Z,2.87
2023-03-05T05:08:29.378Z,2.86
2023-03-05T05:11:06.343Z,2.86
2023-03-05T05:13:33.009Z,2.81
2023-03-05T05:15:59.400Z,2.77
2023-03-05T05:18:25.931Z,2.78
2023-03-05T05:20:52.832Z,2.78
2023-03-05T05:23:22.320Z,2.79
2023-03-05T05:25:55.840Z,2.81
2023-03-05T05:28:26.732Z,2.79
2023-03-05T05:30:56.864Z,2.81
2023-03-05T05:33:23.681Z,2.81
2023-03-05T05:35:52.076Z,2.83
2023-03-05T05:38:23.648Z,2.81
2023-03-05T05:40:50.076Z,2.78
2023-03-05T05:43:18.659Z,2.77
2023-03-05T05:45:47.556Z,2.74
2023-03-05T05:48:14.010Z,2.73
2023-03-05T05:50:41.562Z,2.72
2023-03-05T05:53:08.293Z,2.68
2023-03-05T05:55:34.689Z,2.62
2023-03-05T05:58:02.154Z,2.63
2023-03-05T06:00:28.795Z,2.62
2023-03-05T06:02:58.611Z,2.67
2023-03-05T06:05:25.093Z,2.72
2023-03-05T06:07:51.470Z,2.74
2023-03-05T06:10:22.726Z,2.76
2023-03-05T06:12:50.182Z,2.79
2023-03-05T06:15:23.814Z,2.82
2023-03-05T06:17:50.194Z,2.81
2023-03-05T06:20:19.424Z,2.82
2023-03-05T06:22:48.270Z,2.78
2023-03-05T06:25:14.785Z,2.77
2023-03-05T06:27:41.114Z,2.77
2023-03-05T06:30:11.414Z,2.75
2023-03-05T06:32:38.208Z,2.74
2023-03-05T06:35:04.995Z,2.77
2023-03-05T06:37:33.705Z,2.82
2023-03-05T06:40:00.093Z,2.81
2023-03-05T06:42:26.492Z,2.79
2023-03-05T06:44:59.761Z,2.78
2023-03-05T06:47:28.689Z,2.84
2023-03-05T06:49:59.997Z,2.86
2023-03-05T06:52:26.733Z,2.89
2023-03-05T06:54:55.791Z,2.96
2023-03-05T06:57:22.623Z,2.98
2023-03-05T06:59:49.143Z,2.98
2023-03-05T07:02:19.276Z,3.04
2023-03-05T07:04:46.349Z,3.09
2023-03-05T07:07:13.266Z,3.13
2023-03-05T07:09:42.994Z,3.17
2023-03-05T07:12:10.810Z,3.19
2023-03-05T07:14:40.042Z,3.25
2023-03-05T07:17:08.448Z,3.33
2023-03-05T07:19:34.830Z,3.40
2023-03-05T07:22:01.523Z,3.50
2023-03-05T07:24:29.932Z,3.57
2023-03-05T07:26:57.499Z,3.69
2023-03-05T07:29:24.328Z,3.73
2023-03-05T07:31:50.705Z,3.73
2023-03-05T07:34:17.052Z,3.71
2023-03-05T07:36:43.779Z,3.63
2023-03-05T07:39:14.648Z,3.61
2023-03-05T07:41:41.325Z,3.58
2023-03-05T07:44:10.149Z,3.59
2023-03-05T07:46:36.881Z,3.62
2023-03-05T07:49:03.784Z,3.63
2023-03-05T07:51:31.050Z,3.71
2023-03-05T07:54:02.485Z,3.76
2023-03-05T07:56:32.036Z,3.78
2023-03-05T07:59:02.646Z,3.83
2023-03-05T08:01:31.197Z,3.83
2023-03-05T08:03:57.890Z,3.83
2023-03-05T08:06:25.794Z,3.81
2023-03-05T08:08:52.110Z,3.92
2023-03-05T08:11:18.605Z,4.05
2023-03-05T08:13:47.656Z,4.11
2023-03-05T08:16:17.913Z,4.15
2023-03-05T08:18:48.016Z,4.12
2023-03-05T08:21:19.489Z,4.03
2023-03-05T08:23:46.124Z,4.00
2023-03-05T08:26:16.669Z,4.01
2023-03-05T08:28:44.701Z,4.04
2023-03-05T08:31:17.153Z,4.07
2023-03-05T08:33:44.344Z,4.13
2023-03-05T08:36:10.845Z,4.36
2023-03-05T08:38:37.540Z,4.61
2023-03-05T08:41:04.096Z,4.78
2023-03-05T08:43:33.266Z,4.95
2023-03-05T08:46:00.572Z,5.07
2023-03-05T08:48:27.159Z,5.27
2023-03-05T08:50:54.587Z,5.35
2023-03-05T08:53:20.968Z,5.22
2023-03-05T08:55:54.541Z,5.27
2023-03-05T08:58:21.107Z,5.14
2023-03-05T09:00:48.405Z,5.10
2023-03-05T09:03:14.936Z,5.06
2023-03-05T09:05:43.693Z,4.97
2023-03-05T09:08:10.935Z,4.97
2023-03-05T09:10:37.605Z,5.02
2023-03-05T09:13:04.322Z,5.07
2023-03-05T09:15:33.948Z,5.08
2023-03-05T09:18:00.822Z,5.10
2023-03-05T09:20:29.703Z,5.14
2023-03-05T09:22:57.424Z,5.15
2023-03-05T09:25:25.909Z,5.21
2023-03-05T09:27:52.252Z,5.25
2023-03-05T09:30:21.253Z,5.28
2023-03-05T09:32:47.965Z,5.32
2023-03-05T09:35:14.500Z,5.28
2023-03-05T09:37:44.446Z,5.19
2023-03-05T09:40:14.970Z,5.16
2023-03-05T09:43:01.735Z,5.17
2023-03-05T09:45:30.440Z,5.20
2023-03-05T09:48:05.998Z,5.25
2023-03-05T09:50:48.345Z,5.22
2023-03-05T09:53:23.788Z,5.21
2023-03-05T09:56:03.161Z,5.21
2023-03-05T09:58:38.606Z,5.25
2023-03-05T10:01:10.267Z,5.48
2023-03-05T10:03:57.720Z,5.74
2023-03-05T10:06:29.150Z,5.95
2023-03-05T10:09:04.326Z,5.94
2023-03-05T10:11:42.128Z,5.81
2023-03-05T10:14:32.485Z,5.84
2023-03-05T10:17:27.144Z,5.98
2023-03-05T10:19:56.513Z,5.95
2023-03-05T10:22:39.270Z,5.92
2023-03-05T10:25:21.434Z,5.95
2023-03-05T10:27:57.809Z,5.85
2023-03-05T10:30:43.057Z,5.83
2023-03-05T10:33:16.021Z,5.73
2023-03-05T10:35:53.634Z,5.71
2023-03-05T10:38:38.461Z,5.83
2023-03-05T10:41:13.664Z,6.12
2023-03-05T10:43:46.857Z,6.40
2023-03-05T10:46:16.952Z,6.51
2023-03-05T10:48:46.921Z,6.45
2023-03-05T10:51:24.120Z,6.36
2023-03-05T10:53:56.521Z,6.59
2023-03-05T10:56:26.276Z,6.76
2023-03-05T10:58:53.501Z,7.05
2023-03-05T11:01:22.078Z,7.07
2023-03-05T11:03:54.755Z,6.95
2023-03-05T11:06:36.926Z,6.77
2023-03-05T11:09:18.028Z,6.72
2023-03-05T11:11:45.428Z,6.95
2023-03-05T11:14:23.087Z,7.11
2023-03-05T11:16:50.856Z,7.39
2023-03-05T11:19:17.564Z,7.43
2023-03-05T11:21:45.504Z,7.52
2023-03-05T11:24:17.920Z,7.32
2023-03-05T11:26:50.500Z,7.26
2023-03-05T11:29:22.147Z,7.50
2023-03-05T11:31:48.663Z,7.54
2023-03-05T11:34:21.466Z,7.53
2023-03-05T11:36:53.631Z,7.49
2023-03-05T11:39:23.890Z,7.23
2023-03-05T11:41:58.411Z,7.25
2023-03-05T11:44:34.639Z,7.24
2023-03-05T11:47:13.265Z,7.20
2023-03-05T11:49:45.305Z,7.27
2023-03-05T11:52:18.509Z,7.37
2023-03-05T11:55:05.940Z,7.38
2023-03-05T11:57:40.056Z,7.33
2023-03-05T12:00:12.431Z,7.30
2023-03-05T12:02:42.270Z,7.25
2023-03-05T12:05:13.967Z,7.37
2023-03-05T12:07:43.291Z,7.18
2023-03-05T12:10:20.808Z,7.16
2023-03-05T12:12:47.132Z,7.20
2023-03-05T12:15:32.081Z,7.21
2023-03-05T12:17:58.483Z,7.17
2023-03-05T12:20:28.008Z,7.07
2023-03-05T12:22:56.460Z,7.16
2023-03-05T12:25:28.224Z,7.28
2023-03-05T12:27:55.017Z,7.29
2023-03-05T12:30:36.703Z,7.21
2023-03-05T12:33:03.591Z,7.44
2023-03-05T12:35:41.175Z,7.66
2023-03-05T12:38:27.404Z,7.36
2023-03-05T12:41:13.745Z,7.38
2023-03-05T12:43:40.149Z,7.57
2023-03-05T12:46:23.755Z,7.73
2023-03-05T12:48:50.364Z,7.46
2023-03-05T12:51:28.922Z,7.57
2023-03-05T12:53:55.715Z,7.40
2023-03-05T12:56:26.573Z,7.49
2023-03-05T12:58:57.233Z,7.46
2023-03-05T13:01:29.456Z,7.27
2023-03-05T13:04:20.185Z,7.26
2023-03-05T13:06:47.079Z,7.30
2023-03-05T13:09:27.640Z,7.35
2023-03-05T13:11:56.962Z,7.41
2023-03-05T13:14:32.580Z,7.48
2023-03-05T13:17:01.880Z,7.34
2023-03-05T13:19:29.562Z,7.52
2023-03-05T13:22:05.524Z,7.56
2023-03-05T13:24:31.988Z,7.57
2023-03-05T13:26:58.413Z,7.52
2023-03-05T13:29:35.225Z,7.36
2023-03-05T13:32:18.719Z,7.31
2023-03-05T13:34:48.142Z,7.20
2023-03-05T13:37:19.516Z,7.14
2023-03-05T13:39:50.592Z,7.13
2023-03-05T13:42:24.168Z,7.15
2023-03-05T13:45:00.700Z,7.18
2023-03-05T13:47:28.676Z,7.18
2023-03-05T13:50:00.413Z,7.19
2023-03-05T13:52:32.981Z,7.17
2023-03-05T13:55:00.056Z,7.07
2023-03-05T13:57:38.028Z,6.98
2023-03-05T14:00:06.611Z,6.97
2023-03-05T14:02:33.485Z,7.02
2023-03-05T14:05:02.759Z,6.98
2023-03-05T14:07:36.306Z,6.96
2023-03-05T14:10:03.818Z,6.94
2023-03-05T14:12:34.417Z,6.81
2023-03-05T14:15:02.295Z,6.78
2023-03-05T14:17:37.176Z,6.83
2023-03-05T14:20:19.174Z,6.76
2023-03-05T14:22:49.325Z,6.75
2023-03-05T14:25:37.476Z,6.77
2023-03-05T14:28:20.998Z,6.80
2023-03-05T14:30:55.811Z,6.71
2023-03-05T14:33:26.839Z,6.71
2023-03-05T14:35:53.870Z,6.67
2023-03-05T14:38:25.911Z,6.72
2023-03-05T14:40:54.640Z,6.72
2023-03-05T14:43:23.367Z,6.63
2023-03-05T14:45:52.252Z,6.60
2023-03-05T14:48:21.534Z,6.49
2023-03-05T14:50:56.781Z,6.35
2023-03-05T14:53:29.125Z,6.29
2023-03-05T14:56:00.012Z,6.23
2023-03-05T14:58:32.301Z,6.18
2023-03-05T15:00:59.126Z,6.17
2023-03-05T15:03:25.850Z,6.07
2023-03-05T15:05:55.585Z,5.95
2023-03-05T15:08:23.058Z,5.87
2023-03-05T15:10:49.533Z,5.86
2023-03-05T15:13:18.494Z,5.79
2023-03-05T15:15:46.060Z,5.76
2023-03-05T15:18:13.498Z,5.79
2023-03-05T15:20:49.951Z,5.80
2023-03-05T15:23:19.086Z,5.76
2023-03-05T15:25:50.991Z,5.70
2023-03-05T15:28:17.448Z,5.64
2023-03-05T15:30:45.157Z,5.64
2023-03-05T15:33:12.983Z,5.63
2023-03-05T15:35:42.781Z,5.64
2023-03-05T15:38:15.318Z,5.61
2023-03-05T15:40:42.260Z,5.59
2023-03-05T15:43:09.117Z,5.62
2023-03-05T15:45:35.520Z,5.63
2023-03-05T15:48:02.806Z,5.67
2023-03-05T15:50:31.558Z,5.60
2023-03-05T15:53:00.795Z,5.62
2023-03-05T15:55:29.968Z,5.60
2023-03-05T15:57:58.719Z,5.60
2023-03-05T16:00:29.399Z,5.60
2023-03-05T16:02:55.844Z,5.58
2023-03-05T16:05:22.677Z,5.58
2023-03-05T16:07:54.946Z,5.60
2023-03-05T16:10:23.944Z,5.66
2023-03-05T16:12:53.990Z,5.64
2023-03-05T16:15:21.673Z,5.58
2023-03-05T16:17:50.674Z,5.54
2023-03-05T16:20:22.101Z,5.60
2023-03-05T16:22:49.620Z,5.58
2023-03-05T16:25:16.125Z,5.58
2023-03-05T16:27:44.619Z,5.58
2023-03-05T16:30:15.406Z,5.59
2023-03-05T16:32:41.996Z,5.58
2023-03-05T16:35:12.219Z,5.54
2023-03-05T16:37:39.654Z,5.51
2023-03-05T16:40:06.520Z,5.50
2023-03-05T16:42:33.313Z,5.49
2023-03-05T16:44:59.858Z,5.51
2023-03-05T16:47:26.272Z,5.51
2023-03-05T16:49:52.643Z,5.48
2023-03-05T16:52:20.898Z,5.45
2023-03-05T16:54:47.871Z,5.41
2023-03-05T16:57:14.339Z,5.34
2023-03-05T16:59:44.096Z,5.24
2023-03-05T17:02:13.503Z,5.22
2023-03-05T17:04:42.520Z,5.19
2023-03-05T17:07:09.082Z,5.12
2023-03-05T17:09:38.341Z,5.16
2023-03-05T17:12:05.711Z,5.14
2023-03-05T17:14:32.061Z,5.13
2023-03-05T17:16:58.540Z,5.07
2023-03-05T17:19:24.859Z,5.06
2023-03-05T17:21:55.843Z,5.04
2023-03-05T17:24:22.921Z,5.04
2023-03-05T17:26:49.614Z,5.05
2023-03-05T17:29:19.985Z,5.02
2023-03-05T17:31:49.276Z,5.00
2023-03-05T17:34:16.693Z,5.00
2023-03-05T17:36:43.204Z,5.00
2023-03-05T17:39:09.586Z,5.01
2023-03-05T17:41:38.408Z,5.00
2023-03-05T17:44:07.785Z,4.98
2023-03-05T17:46:34.297Z,4.99
2023-03-05T17:49:01.142Z,5.00
2023-03-05T17:51:27.794Z,4.96
2023-03-05T17:55:48.259Z,4.93
2023-03-05T17:58:17.092Z,4.90
2023-03-05T18:00:43.897Z,4.86
2023-03-05T18:03:10.556Z,4.84
2023-03-05T18:05:37.234Z,4.83
2023-03-05T18:08:04.095Z,4.81
2023-03-05T18:10:34.282Z,4.82
2023-03-05T18:13:07.381Z,4.79
2023-03-05T18:15:33.908Z,4.76
2023-03-05T18:18:00.624Z,4.76
2023-03-05T18:20:33.771Z,4.73
2023-03-05T18:23:05.381Z,4.71
2023-03-05T18:25:33.795Z,4.72
2023-03-05T18:28:07.441Z,4.66
2023-03-05T18:30:34.454Z,4.64
2023-03-05T18:33:06.182Z,4.60
2023-03-05T18:35:33.576Z,4.54
2023-03-05T18:38:05.186Z,4.54
2023-03-05T18:40:35.797Z,4.55
2023-03-05T18:43:06.046Z,4.49
2023-03-05T18:45:34.226Z,4.46
2023-03-05T18:48:03.219Z,4.44
2023-03-05T18:50:34.575Z,4.44
2023-03-05T18:53:01.033Z,4.40
2023-03-05T18:55:30.586Z,4.37
2023-03-05T18:58:03.460Z,4.35
2023-03-05T19:00:33.714Z,4.30
2023-03-05T19:03:03.551Z,4.28
2023-03-05T19:05:32.647Z,4.25
2023-03-05T19:08:00.279Z,4.23
2023-03-05T19:10:27.526Z,4.21
2023-03-05T19:13:25.418Z,4.19
2023-03-05T19:15:51.934Z,4.18
2023-03-05T19:18:20.884Z,4.15
2023-03-05T19:20:56.422Z,4.09
2023-03-05T19:23:23.122Z,4.10
2023-03-05T19:25:52.351Z,4.11
2023-03-05T19:28:21.258Z,4.06
2023-03-05T19:30:50.810Z,4.05
2023-03-05T19:33:19.589Z,4.08
2023-03-05T19:35:51.914Z,4.07
2023-03-05T19:38:20.813Z,4.03
2023-03-05T19:40:47.678Z,4.00
2023-03-05T19:43:14.316Z,3.99
2023-03-05T19:45:40.814Z,3.98
2023-03-05T19:48:07.553Z,3.93
2023-03-05T19:50:34.661Z,3.92
2023-03-05T19:53:01.454Z,3.91
2023-03-05T19:55:28.979Z,3.91
2023-03-05T19:57:55.415Z,3.90
2023-03-05T20:00:22.241Z,3.92
2023-03-05T20:02:48.718Z,3.92
2023-03-05T20:05:22.649Z,3.88
2023-03-05T20:07:49.129Z,3.87
2023-03-05T20:10:15.705Z,3.89
2023-03-05T20:12:44.115Z,3.88
2023-03-05T20:15:10.468Z,3.87
2023-03-05T20:17:39.334Z,3.85
2023-03-05T20:20:14.999Z,3.84
2023-03-05T20:22:48.859Z,3.82
2023-03-05T20:25:24.675Z,3.80
2023-03-05T20:27:52.527Z,3.78
2023-03-05T20:30:21.834Z,3.76
2023-03-05T20:32:48.332Z,3.74
2023-03-05T20:35:19.099Z,3.69
2023-03-05T20:38:10.587Z,3.69
2023-03-05T20:40:45.482Z,3.71
2023-03-05T20:43:12.003Z,3.70
2023-03-05T20:45:40.797Z,3.65
2023-03-05T20:48:07.297Z,3.63
2023-03-05T20:50:34.160Z,3.62
2023-03-05T20:53:00.858Z,3.65
2023-03-05T20:55:28.677Z,3.60
2023-03-05T20:57:56.633Z,3.60
2023-03-05T21:00:26.700Z,3.61
2023-03-05T21:02:55.302Z,3.61
2023-03-05T21:05:24.245Z,3.61
2023-03-05T21:07:51.121Z,3.58
2023-03-05T21:10:20.542Z,3.56
2023-03-05T21:12:50.728Z,3.53
2023-03-05T21:15:23.194Z,3.49
2023-03-05T21:17:50.152Z,3.47
2023-03-05T21:20:28.680Z,3.46
2023-03-05T21:22:56.371Z,3.43
2023-03-05T21:25:28.867Z,3.39
2023-03-05T21:27:58.066Z,3.35
2023-03-05T21:30:43.624Z,3.33
2023-03-05T21:33:18.609Z,3.33
2023-03-05T21:35:45.453Z,3.36
2023-03-05T21:38:12.636Z,3.34
2023-03-05T21:40:44.305Z,3.31
2023-03-05T21:43:18.265Z,3.31
2023-03-05T21:45:47.658Z,3.28
2023-03-05T21:48:16.683Z,3.26
2023-03-05T21:50:45.645Z,3.27
2023-03-05T21:53:12.876Z,3.25
2023-03-05T21:55:53.129Z,3.22
2023-03-05T21:58:25.712Z,3.21
2023-03-05T22:00:58.520Z,3.15
2023-03-05T22:03:25.990Z,3.10
2023-03-05T22:05:55.511Z,3.07
2023-03-05T22:08:26.284Z,3.06
2023-03-05T22:10:56.002Z,3.05
2023-03-05T22:13:24.623Z,2.97
2023-03-05T22:15:56.262Z,2.93
2023-03-05T22:18:30.066Z,2.86
2023-03-05T22:20:59.195Z,2.82
2023-03-05T22:23:30.038Z,2.77
2023-03-05T22:26:02.992Z,2.72
2023-03-05T22:28:32.108Z,2.72
2023-03-05T22:31:01.004Z,2.72
2023-03-05T22:33:28.020Z,2.68
2023-03-05T22:35:55.000Z,2.66
2023-03-05T22:38:22.011Z,2.63
2023-03-05T22:40:49.926Z,2.61
2023-03-05T22:43:17.342Z,2.60
2023-03-05T22:45:48.038Z,2.60
2023-03-05T22:48:15.093Z,2.52
2023-03-05T22:50:43.930Z,2.43
2023-03-05T22:53:12.122Z,2.38
2023-03-05T22:55:42.734Z,2.34
2023-03-05T22:58:10.520Z,2.30
2023-03-05T23:00:37.774Z,2.24
2023-03-05T23:03:06.181Z,2.21
2023-03-05T23:05:35.916Z,2.18
2023-03-05T23:08:02.530Z,2.15
2023-03-05T23:10:34.462Z,2.10
2023-03-05T23:13:03.745Z,2.07
2023-03-05T23:15:33.663Z,2.02
2023-03-05T23:18:00.558Z,1.96
2023-03-05T23:20:30.506Z,1.96
2023-03-05T23:22:59.502Z,1.93
2023-03-05T23:25:34.374Z,1.91
2023-03-05T23:28:03.020Z,1.88
2023-03-05T23:30:39.478Z,1.83
2023-03-05T23:33:35.080Z,1.82
2023-03-05T23:36:06.185Z,1.74
2023-03-05T23:38:38.536Z,1.67
2023-03-05T23:41:08.431Z,1.63
2023-03-05T23:43:37.386Z,1.63
2023-03-05T23:46:12.312Z,1.59
2023-03-05T23:48:38.904Z,1.55
2023-03-05T23:51:11.464Z,1.53
2023-03-05T23:53:40.302Z,1.50
2023-03-05T23:56:12.503Z,1.44
2023-03-05T23:58:42.853Z,1.36
